Time;durP1;ratioP1;P1;durP2;ratioP2;P2;SDS_P1;SDS_P2;PMS_P1;PMS_P2;Temp;Humidity;BMP_temperature;BMP_pressure;BME280_temperature;BME280_humidity;BME280_pressure;Samples;Min_cycle;Max_cycle;Signal;HPM_P1;HPM_P2
2022/01/09 00:02:22;;;;;;;31.13;4.63;;;;;;;5.94;93.65;99098.94;5012256;28;20048;-84
2022/01/09 00:04:47;;;;;;;40.80;5.55;;;;;;;5.96;93.88;99104.09;5011590;28;20064;-83
2022/01/09 00:07:12;;;;;;;24.50;3.90;;;;;;;5.94;94.08;99106.75;5027310;28;20033;-84
2022/01/09 00:09:41;;;;;;;31.20;4.38;;;;;;;5.96;93.81;99124.91;5027368;28;20037;-84
2022/01/09 00:12:07;;;;;;;32.35;6.28;;;;;;;5.96;93.77;99117.09;5045191;28;20041;-84
2022/01/09 00:14:32;;;;;;;39.00;4.57;;;;;;;5.96;93.23;99128.31;5011136;28;20316;-84
2022/01/09 00:16:59;;;;;;;35.03;4.68;;;;;;;5.97;93.06;99131.78;5013067;28;20056;-84
2022/01/09 00:19:25;;;;;;;30.33;4.28;;;;;;;5.98;92.76;99133.44;5013884;28;20097;-85
2022/01/09 00:21:51;;;;;;;27.60;4.22;;;;;;;5.99;92.19;99142.09;5030182;28;20049;-83
2022/01/09 00:24:16;;;;;;;33.53;4.88;;;;;;;5.99;92.12;99150.75;5011529;28;20030;-84
2022/01/09 00:26:42;;;;;;;21.30;4.57;;;;;;;6.00;91.88;99167.16;4995388;28;20396;-85
2022/01/09 00:29:09;;;;;;;32.55;5.53;;;;;;;5.99;91.62;99155.94;5044812;28;20105;-85
2022/01/09 00:31:34;;;;;;;28.70;3.97;;;;;;;5.99;91.60;99175.91;5028046;28;20037;-83
2022/01/09 00:34:00;;;;;;;31.33;4.43;;;;;;;5.98;91.23;99177.63;5011359;28;20028;-84
2022/01/09 00:36:25;;;;;;;36.53;5.88;;;;;;;5.96;91.52;99177.69;5026290;28;20044;-85
2022/01/09 00:38:51;;;;;;;31.05;5.00;;;;;;;5.96;91.18;99185.50;5011853;28;20033;-84
2022/01/09 00:41:16;;;;;;;28.92;4.07;;;;;;;5.97;91.00;99183.75;5011778;28;20061;-84
2022/01/09 00:43:41;;;;;;;30.80;5.00;;;;;;;5.99;91.12;99194.09;5012391;28;20405;-83
2022/01/09 00:46:09;;;;;;;24.70;4.40;;;;;;;5.98;90.79;99198.41;5010282;28;20243;-84
2022/01/09 00:48:34;;;;;;;29.73;4.88;;;;;;;5.99;90.72;99196.69;5046731;28;20093;-83
2022/01/09 00:50:59;;;;;;;29.45;4.30;;;;;;;5.99;90.53;99209.69;5029790;28;20035;-84
2022/01/09 00:53:25;;;;;;;21.88;4.93;;;;;;;5.99;90.68;99210.50;5029531;28;20045;-83
2022/01/09 00:55:50;;;;;;;23.65;3.75;;;;;;;5.98;90.35;99203.63;5046355;28;20104;-84
2022/01/09 00:58:16;;;;;;;27.00;4.07;;;;;;;6.00;90.22;99209.56;5028175;28;20393;-83
2022/01/09 01:00:41;;;;;;;27.70;4.72;;;;;;;6.00;90.28;99221.75;5010892;28;20048;-83
2022/01/09 01:03:07;;;;;;;26.83;4.45;;;;;;;5.98;89.99;99215.78;5027598;28;20240;-84
2022/01/09 01:05:32;;;;;;;24.33;4.68;;;;;;;5.99;89.57;99230.47;4995559;28;20025;-84
2022/01/09 01:07:58;;;;;;;19.58;4.20;;;;;;;5.96;89.55;99224.47;5021074;28;20071;-84
2022/01/09 01:10:23;;;;;;;32.75;4.18;;;;;;;5.96;89.65;99240.06;5028993;28;20032;-83
2022/01/09 01:12:49;;;;;;;21.90;4.22;;;;;;;5.96;89.41;99252.22;5009603;28;20143;-84
2022/01/09 01:15:14;;;;;;;20.85;3.63;;;;;;;5.94;89.56;99257.44;4991283;28;20236;-84
2022/01/09 01:17:40;;;;;;;20.90;3.85;;;;;;;5.93;89.45;99260.97;5038344;28;20037;-84
2022/01/09 01:20:06;;;;;;;32.97;4.18;;;;;;;5.95;88.83;99259.19;4995483;28;20264;-84
2022/01/09 01:22:33;;;;;;;19.13;3.53;;;;;;;5.94;88.41;99254.03;5010418;28;20209;-84
2022/01/09 01:24:59;;;;;;;24.83;4.32;;;;;;;5.94;88.37;99269.63;5028703;28;20045;-84
2022/01/09 01:27:24;;;;;;;19.23;3.85;;;;;;;5.94;87.99;99272.22;5029611;28;20030;-84
2022/01/09 01:29:50;;;;;;;29.98;4.18;;;;;;;5.95;87.74;99281.72;5024539;28;20052;-84
2022/01/09 01:32:15;;;;;;;21.05;3.70;;;;;;;5.94;88.04;99293.84;5046070;28;20033;-85
2022/01/09 01:34:40;;;;;;;27.77;4.45;;;;;;;5.94;87.76;99293.00;5028685;28;20037;-84
2022/01/09 01:37:06;;;;;;;25.02;3.42;;;;;;;5.92;87.24;99300.88;5028558;28;20059;-83
2022/01/09 01:39:31;;;;;;;23.33;3.88;;;;;;;5.91;87.32;99304.38;5011566;28;20060;-85
2022/01/09 01:41:57;;;;;;;29.50;3.90;;;;;;;5.90;87.30;99305.28;5027308;28;20097;-84
2022/01/09 01:44:22;;;;;;;15.88;2.88;;;;;;;5.90;87.16;99312.25;5027348;28;20337;-83
2022/01/09 01:46:48;;;;;;;19.48;3.55;;;;;;;5.90;87.14;99314.84;5017204;28;20041;-83
2022/01/09 01:49:13;;;;;;;18.48;3.42;;;;;;;5.89;87.10;99315.75;5025725;28;20080;-84
2022/01/09 01:51:41;;;;;;;14.30;3.15;;;;;;;5.86;87.13;99334.94;5009242;28;20034;-84
2022/01/09 01:54:10;;;;;;;19.48;3.53;;;;;;;5.85;87.20;99350.59;5007920;28;20018;-84
2022/01/09 01:56:36;;;;;;;20.67;3.92;;;;;;;5.83;87.25;99342.03;4977228;28;20343;-83
2022/01/09 01:59:01;;;;;;;18.00;3.58;;;;;;;5.82;87.14;99353.31;5018560;28;20033;-84
2022/01/09 02:05:00;;;;;;;19.50;2.70;;;;;;;5.82;86.80;99367.16;5026221;28;20241;-83
2022/01/09 02:07:27;;;;;;;19.27;2.90;;;;;;;5.79;86.92;99377.69;5023455;28;20192;-83
2022/01/09 02:09:53;;;;;;;20.70;3.00;;;;;;;5.79;86.56;99377.69;5005094;28;20100;-83
2022/01/09 02:12:18;;;;;;;20.10;3.08;;;;;;;5.78;86.56;99370.78;5004529;28;20060;-83
2022/01/09 02:14:46;;;;;;;22.10;3.33;;;;;;;5.77;86.56;99371.72;5040175;28;20037;-83
2022/01/09 02:17:18;;;;;;;22.25;3.15;;;;;;;5.76;86.56;99396.81;5006094;28;20021;-84
2022/01/09 02:19:53;;;;;;;18.13;3.58;;;;;;;5.76;86.41;99389.03;5001029;28;20029;-83
2022/01/09 02:22:19;;;;;;;14.52;2.83;;;;;;;5.75;86.29;99395.16;4987124;28;20029;-84
2022/01/09 02:24:44;;;;;;;13.00;2.38;;;;;;;5.76;86.64;99403.78;5002799;28;20026;-83
2022/01/09 02:27:10;;;;;;;24.10;3.00;;;;;;;5.76;86.25;99416.78;4999186;28;20325;-84
2022/01/09 02:29:35;;;;;;;17.38;3.22;;;;;;;5.74;86.19;99416.84;5027946;28;20360;-84
2022/01/09 02:32:01;;;;;;;21.30;3.25;;;;;;;5.74;85.65;99427.22;5002352;28;20355;-83
2022/01/09 02:34:26;;;;;;;19.23;2.53;;;;;;;5.74;85.38;99432.44;4988803;28;20101;-83
2022/01/09 02:36:51;;;;;;;16.98;2.65;;;;;;;5.75;85.55;99412.50;5023946;28;20341;-83
2022/01/09 02:39:17;;;;;;;18.85;2.17;;;;;;;5.73;85.94;99432.50;5000888;28;20445;-84
2022/01/09 02:41:45;;;;;;;14.68;2.10;;;;;;;5.71;85.81;99431.72;5010171;28;20248;-84
2022/01/09 02:44:10;;;;;;;15.73;2.35;;;;;;;5.71;85.98;99442.97;5009311;28;20045;-83
2022/01/09 02:49:05;;;;;;;13.88;2.45;;;;;;;5.68;85.39;99448.28;5010443;28;20045;-84
2022/01/09 02:51:31;;;;;;;12.82;2.78;;;;;;;5.67;85.69;99463.94;4993871;28;20352;-83
2022/01/09 02:54:12;;;;;;;14.13;2.42;;;;;;;5.66;85.44;99476.09;5025114;28;20025;-83
2022/01/09 02:56:38;;;;;;;16.63;2.67;;;;;;;5.63;85.37;99473.59;5044225;28;20293;-84
2022/01/09 02:59:03;;;;;;;9.57;1.90;;;;;;;5.61;85.23;99470.22;5043944;28;20052;-83
2022/01/09 03:01:28;;;;;;;14.93;1.83;;;;;;;5.58;85.42;99481.59;5026610;28;20348;-84
2022/01/09 03:03:54;;;;;;;17.70;2.60;;;;;;;5.56;85.21;99480.81;5025450;28;20033;-83
2022/01/09 03:06:19;;;;;;;10.63;2.47;;;;;;;5.54;85.14;99499.97;5009621;28;20347;-84
2022/01/09 03:08:45;;;;;;;21.60;2.60;;;;;;;5.52;84.88;99509.56;5023775;28;20029;-84
2022/01/09 03:11:10;;;;;;;14.68;2.13;;;;;;;5.50;84.55;99499.25;5024628;28;20223;-84
2022/01/09 03:13:35;;;;;;;9.88;2.00;;;;;;;5.48;84.90;99508.03;5043771;28;20049;-83
2022/01/09 03:16:01;;;;;;;16.55;2.83;;;;;;;5.47;85.01;99511.50;5008297;28;20037;-83
2022/01/09 03:18:27;;;;;;;11.30;2.40;;;;;;;5.44;84.99;99515.09;5042744;28;20048;-83
2022/01/09 03:20:52;;;;;;;12.77;2.75;;;;;;;5.43;84.91;99526.38;5020945;28;20045;-83
2022/01/09 03:23:17;;;;;;;14.18;2.28;;;;;;;5.43;84.60;99546.31;5021684;28;20049;-83
2022/01/09 03:25:43;;;;;;;12.43;2.22;;;;;;;5.41;84.35;99540.34;4994877;28;20029;-83
2022/01/09 03:28:08;;;;;;;10.65;2.22;;;;;;;5.39;84.31;99525.66;5041581;28;20267;-83
2022/01/09 03:30:34;;;;;;;18.70;2.22;;;;;;;5.39;84.48;99551.59;5011889;28;20033;-83
2022/01/09 03:33:00;;;;;;;8.23;2.28;;;;;;;5.38;84.56;99549.94;5023996;28;20038;-83
2022/01/09 03:35:26;;;;;;;9.15;1.77;;;;;;;5.38;84.83;99547.34;5041810;28;20033;-84
2022/01/09 03:37:51;;;;;;;12.60;2.30;;;;;;;5.38;84.92;99560.31;5007409;28;20415;-83
2022/01/09 03:40:18;;;;;;;9.30;2.08;;;;;;;5.37;84.79;99561.22;4990509;28;20395;-83
2022/01/09 03:42:45;;;;;;;7.57;2.13;;;;;;;5.36;84.71;99566.47;5008012;28;20041;-83
2022/01/09 03:45:11;;;;;;;9.65;2.50;;;;;;;5.36;84.67;99579.44;5007167;28;20037;-83
2022/01/09 03:47:36;;;;;;;15.98;2.33;;;;;;;5.36;84.54;99584.63;5007746;28;20093;-85
2022/01/09 03:50:06;;;;;;;6.03;1.80;;;;;;;5.34;84.13;99569.13;5041587;28;20038;-84
2022/01/09 03:52:31;;;;;;;7.50;1.77;;;;;;;5.34;83.91;99573.47;5023931;28;20026;-84
2022/01/09 03:54:57;;;;;;;8.55;2.20;;;;;;;5.33;83.82;99583.03;5041407;28;20041;-84
2022/01/09 03:57:22;;;;;;;11.52;1.98;;;;;;;5.31;83.95;99579.63;5024111;28;20029;-84
2022/01/09 03:59:48;;;;;;;11.05;2.40;;;;;;;5.32;83.63;99583.06;5011229;28;20037;-83
2022/01/09 04:02:13;;;;;;;13.18;2.05;;;;;;;5.30;83.76;99592.69;5027723;28;20033;-83
2022/01/09 04:04:39;;;;;;;8.57;1.98;;;;;;;5.29;84.07;99591.81;5027899;28;20045;-84
2022/01/09 04:07:04;;;;;;;11.65;2.22;;;;;;;5.28;83.92;99594.50;5007840;28;20040;-83
2022/01/09 04:09:40;;;;;;;7.60;1.67;;;;;;;5.26;83.98;99586.75;5017468;28;20104;-84
2022/01/09 04:12:14;;;;;;;7.25;2.03;;;;;;;5.24;83.94;99598.09;5045020;28;20256;-84
2022/01/09 04:14:39;;;;;;;6.65;2.10;;;;;;;5.23;82.96;99611.97;5014101;28;20041;-84
2022/01/09 04:17:08;;;;;;;5.13;1.63;;;;;;;5.22;82.61;99605.09;5027726;28;20101;-83
2022/01/09 04:19:33;;;;;;;12.80;1.98;;;;;;;5.20;82.17;99610.34;5012890;28;20388;-83
2022/01/09 04:21:59;;;;;;;6.13;2.20;;;;;;;5.18;81.91;99617.34;5046584;28;20057;-83
2022/01/09 04:24:24;;;;;;;10.82;2.30;;;;;;;5.16;82.18;99621.75;5029882;28;20075;-84
2022/01/09 04:26:49;;;;;;;6.93;1.30;;;;;;;5.14;82.37;99618.38;5029750;28;20039;-83
2022/01/09 04:29:15;;;;;;;11.15;2.03;;;;;;;5.13;82.47;99627.03;5011197;28;20033;-84
2022/01/09 04:31:40;;;;;;;8.95;2.08;;;;;;;5.10;82.65;99628.00;5009268;28;20084;-83
2022/01/09 04:34:06;;;;;;;10.32;2.03;;;;;;;5.10;82.75;99629.78;5009778;28;20056;-84
2022/01/09 04:36:31;;;;;;;10.30;1.88;;;;;;;5.08;82.91;99632.41;5027179;28;20113;-84
2022/01/09 04:38:56;;;;;;;8.98;1.85;;;;;;;5.08;83.00;99640.22;5025926;28;20032;-83
2022/01/09 04:41:22;;;;;;;8.18;1.80;;;;;;;5.07;83.02;99659.25;5028806;28;20075;-83
2022/01/09 04:43:49;;;;;;;10.75;1.90;;;;;;;5.07;83.06;99658.44;5009828;28;20033;-83
2022/01/09 04:46:21;;;;;;;5.85;1.60;;;;;;;5.06;83.53;99657.59;5009562;28;20399;-83
2022/01/09 04:48:48;;;;;;;8.52;2.50;;;;;;;5.06;83.96;99656.72;4995277;28;20029;-83
2022/01/09 04:51:15;;;;;;;12.25;2.72;;;;;;;5.07;84.00;99676.59;4998854;28;20182;-84
2022/01/09 04:53:40;;;;;;;8.48;1.58;;;;;;;5.07;83.87;99680.03;5046888;28;20359;-83
2022/01/09 04:56:06;;;;;;;10.32;2.03;;;;;;;5.06;84.17;99688.72;5028161;28;20025;-83
2022/01/09 04:58:31;;;;;;;13.25;2.10;;;;;;;5.07;84.50;99681.78;5046825;28;20048;-84
2022/01/09 05:00:57;;;;;;;15.32;2.30;;;;;;;5.07;84.67;99692.16;5011866;28;20114;-83
2022/01/09 05:03:22;;;;;;;15.02;2.13;;;;;;;5.06;84.31;99698.25;5029309;28;20045;-83
2022/01/09 05:05:48;;;;;;;9.60;1.90;;;;;;;5.06;84.81;99706.03;5029000;28;20049;-83
2022/01/09 05:08:13;;;;;;;14.13;2.40;;;;;;;5.07;84.66;99705.13;5012900;28;20045;-84
2022/01/09 05:10:38;;;;;;;17.05;2.38;;;;;;;5.05;84.54;99705.19;5046138;28;20048;-83
2022/01/09 05:13:04;;;;;;;9.23;2.55;;;;;;;5.05;84.87;99722.50;5046917;28;20113;-84
2022/01/09 05:15:29;;;;;;;7.43;2.20;;;;;;;5.05;84.85;99718.16;5029118;28;20057;-85
2022/01/09 05:17:59;;;;;;;9.73;2.35;;;;;;;5.05;84.75;99720.75;5029399;28;20033;-83
2022/01/09 05:20:24;;;;;;;7.28;1.60;;;;;;;5.06;84.77;99726.78;5029518;28;20037;-84
2022/01/09 05:22:50;;;;;;;9.57;1.95;;;;;;;5.06;84.58;99726.78;4995198;28;20040;-84
2022/01/09 05:25:15;;;;;;;9.15;2.42;;;;;;;5.07;84.12;99731.94;5028262;28;20093;-84
2022/01/09 05:27:41;;;;;;;19.05;2.47;;;;;;;5.07;84.06;99737.13;5027553;28;20044;-83
2022/01/09 05:30:07;;;;;;;5.88;2.20;;;;;;;5.08;83.98;99743.19;5038464;28;20048;-84
2022/01/09 05:32:32;;;;;;;6.47;2.08;;;;;;;5.08;83.71;99750.97;4991476;28;20045;-83
2022/01/09 05:34:58;;;;;;;13.90;1.83;;;;;;;5.08;83.84;99740.59;5021954;28;20040;-83
2022/01/09 05:37:23;;;;;;;13.80;2.65;;;;;;;5.08;83.79;99745.78;5045985;28;20344;-84
2022/01/09 05:39:49;;;;;;;8.40;1.67;;;;;;;5.06;84.00;99745.81;4995248;28;20046;-83
2022/01/09 05:42:14;;;;;;;10.40;1.92;;;;;;;5.07;84.01;99755.28;5011652;28;20055;-84
2022/01/09 05:44:40;;;;;;;13.20;2.05;;;;;;;5.07;84.02;99757.03;5011906;28;20025;-83
2022/01/09 05:47:05;;;;;;;8.90;1.85;;;;;;;5.07;83.68;99757.88;5016793;28;20041;-84
2022/01/09 05:49:31;;;;;;;6.05;1.58;;;;;;;5.07;83.63;99764.81;4994896;28;20029;-84
2022/01/09 05:51:56;;;;;;;5.88;1.88;;;;;;;5.08;83.71;99769.97;5011103;28;20136;-84
2022/01/09 05:54:21;;;;;;;10.10;1.88;;;;;;;5.09;83.21;99773.41;5027252;28;20028;-84
2022/01/09 05:56:47;;;;;;;8.32;1.95;;;;;;;5.08;83.09;99763.94;5010639;28;20041;-83
2022/01/09 05:59:12;;;;;;;12.60;2.28;;;;;;;5.08;83.51;99777.75;5027311;28;20046;-83
2022/01/09 06:01:38;;;;;;;8.90;1.52;;;;;;;5.09;83.44;99776.00;5026838;28;20037;-83
2022/01/09 06:04:05;;;;;;;10.48;2.10;;;;;;;5.09;83.94;99770.81;5044301;28;20038;-84
2022/01/09 06:06:31;;;;;;;10.85;2.17;;;;;;;5.07;83.90;99773.44;5045195;28;20112;-84
2022/01/09 06:08:56;;;;;;;10.45;1.95;;;;;;;5.08;83.57;99785.53;5005820;28;20038;-83
2022/01/09 06:11:22;;;;;;;9.63;2.10;;;;;;;5.07;83.20;99799.41;5015130;28;20049;-84
2022/01/09 06:13:47;;;;;;;6.03;2.05;;;;;;;5.07;83.58;99804.59;5030210;28;20063;-83
2022/01/09 06:16:13;;;;;;;10.60;1.88;;;;;;;5.05;83.84;99798.59;5030028;28;20069;-83
2022/01/09 06:18:38;;;;;;;8.82;1.83;;;;;;;5.02;84.12;99819.50;5047897;28;20037;-83
2022/01/09 06:21:04;;;;;;;5.90;1.80;;;;;;;4.99;84.75;99801.44;5047647;28;20123;-84
2022/01/09 06:23:29;;;;;;;8.07;1.42;;;;;;;4.98;85.41;99817.88;5014321;28;20163;-84
2022/01/09 06:25:55;;;;;;;12.93;2.03;;;;;;;4.94;85.46;99808.50;4998682;28;20033;-83
2022/01/09 06:28:20;;;;;;;11.82;2.00;;;;;;;4.92;85.98;99821.53;5015048;28;20064;-83
2022/01/09 06:30:46;;;;;;;8.40;1.52;;;;;;;4.94;86.33;99831.88;5009104;28;20033;-83
2022/01/09 06:33:11;;;;;;;12.00;2.28;;;;;;;4.92;86.31;99831.06;5012016;28;20052;-83
2022/01/09 06:35:37;;;;;;;12.10;2.60;;;;;;;4.93;86.85;99850.91;4995630;28;20033;-83
2022/01/09 06:38:03;;;;;;;11.60;2.85;;;;;;;4.92;86.75;99836.25;4994046;28;20046;-83
2022/01/09 06:40:30;;;;;;;9.73;1.83;;;;;;;4.88;86.51;99824.31;5014503;28;20049;-84
2022/01/09 06:42:56;;;;;;;14.73;2.28;;;;;;;4.85;86.64;99846.00;5027807;28;20066;-84
2022/01/09 06:45:24;;;;;;;14.43;2.08;;;;;;;4.85;87.05;99860.72;5027351;28;20097;-84
2022/01/09 06:47:51;;;;;;;8.82;1.75;;;;;;;4.82;86.65;99866.88;5010519;28;20072;-83
2022/01/09 06:50:17;;;;;;;8.75;1.92;;;;;;;4.76;86.46;99862.69;5028031;28;20264;-84
2022/01/09 06:52:42;;;;;;;8.10;1.42;;;;;;;4.72;86.31;99849.91;5011178;28;20057;-83
2022/01/09 06:55:08;;;;;;;4.13;1.20;;;;;;;4.69;86.52;99857.75;5010429;28;20037;-84
2022/01/09 06:57:33;;;;;;;19.63;2.97;;;;;;;4.67;86.87;99865.59;5028141;28;20033;-83
2022/01/09 06:59:59;;;;;;;12.32;1.95;;;;;;;4.67;87.24;99868.19;4994956;28;20042;-84
2022/01/09 07:02:27;;;;;;;12.05;2.72;;;;;;;4.67;87.36;99872.53;5027601;28;20064;-84
2022/01/09 07:04:53;;;;;;;7.07;1.93;;;;;;;4.67;87.51;99865.59;5027089;28;20048;-83
2022/01/09 07:07:18;;;;;;;10.00;2.58;;;;;;;4.69;87.60;99876.75;5004024;28;20290;-83
2022/01/09 07:09:43;;;;;;;10.60;2.03;;;;;;;4.69;87.43;99881.94;5025213;28;20252;-83
2022/01/09 07:12:09;;;;;;;9.43;1.63;;;;;;;4.69;87.52;99881.94;5044185;28;20042;-83
2022/01/09 07:14:35;;;;;;;12.65;2.40;;;;;;;4.71;87.57;99877.59;5027247;28;20117;-84
2022/01/09 07:17:01;;;;;;;8.77;2.13;;;;;;;4.73;87.41;99880.97;5027494;28;20412;-84
2022/01/09 07:19:27;;;;;;;10.18;2.10;;;;;;;4.72;87.58;99881.84;5026917;28;20057;-83
2022/01/09 07:21:52;;;;;;;15.93;3.15;;;;;;;4.74;87.43;99887.84;5026968;28;20034;-83
2022/01/09 07:24:18;;;;;;;12.55;1.85;;;;;;;4.75;87.58;99896.50;5010806;28;20022;-83
2022/01/09 07:26:43;;;;;;;13.15;2.00;;;;;;;4.75;87.49;99888.72;4994261;28;20340;-83
2022/01/09 07:29:09;;;;;;;15.05;2.95;;;;;;;4.74;87.67;99898.22;5027452;28;20122;-83
2022/01/09 07:31:34;;;;;;;14.60;2.22;;;;;;;4.77;87.42;99897.28;5027295;28;20042;-83
2022/01/09 07:34:00;;;;;;;13.98;2.65;;;;;;;4.78;87.70;99909.34;5025111;28;20089;-83
2022/01/09 07:36:25;;;;;;;12.13;2.03;;;;;;;4.78;87.65;99910.22;5027306;28;20080;-82
2022/01/09 07:38:50;;;;;;;12.15;1.67;;;;;;;4.80;87.61;99926.56;5028264;28;20093;-84
2022/01/09 07:41:17;;;;;;;10.98;2.03;;;;;;;4.80;87.76;99929.16;5013767;28;20050;-82
2022/01/09 07:43:42;;;;;;;11.65;1.67;;;;;;;4.78;87.94;99930.09;5006758;28;20030;-84
2022/01/09 07:46:08;;;;;;;14.32;2.10;;;;;;;4.77;87.98;99931.84;5021079;28;20052;-83
2022/01/09 07:48:33;;;;;;;11.73;2.42;;;;;;;4.77;88.26;99931.84;4997618;28;20035;-84
2022/01/09 07:50:58;;;;;;;10.30;2.35;;;;;;;4.75;88.37;99931.06;5007969;28;20033;-83
2022/01/09 07:53:24;;;;;;;7.75;2.00;;;;;;;4.76;88.46;99935.31;5008591;28;20038;-82
2022/01/09 07:55:51;;;;;;;10.95;2.35;;;;;;;4.77;88.63;99931.00;5008157;28;20039;-83
2022/01/09 07:58:17;;;;;;;12.63;2.30;;;;;;;4.77;88.86;99926.66;4990813;28;20049;-84
2022/01/09 08:00:43;;;;;;;12.07;2.67;;;;;;;4.77;88.96;99934.44;4991129;28;20022;-84
2022/01/09 08:03:09;;;;;;;12.65;2.95;;;;;;;4.78;88.73;99935.28;5002229;28;20046;-83
2022/01/09 08:05:34;;;;;;;9.25;1.85;;;;;;;4.78;88.92;99937.88;5004400;28;20053;-83
2022/01/09 08:08:00;;;;;;;14.90;2.55;;;;;;;4.80;88.84;99949.06;5006680;28;20407;-83
2022/01/09 08:10:25;;;;;;;15.52;2.72;;;;;;;4.82;88.56;99957.66;5005132;28;20034;-82
2022/01/09 08:12:51;;;;;;;10.23;2.08;;;;;;;4.81;88.32;99961.97;5006881;28;20026;-82
2022/01/09 08:15:16;;;;;;;10.48;2.33;;;;;;;4.80;88.34;99957.72;5021078;28;20034;-82
2022/01/09 08:17:45;;;;;;;8.77;1.90;;;;;;;4.83;88.23;99974.06;4989348;28;20097;-83
2022/01/09 08:20:14;;;;;;;6.60;1.85;;;;;;;4.85;88.15;99980.06;5001617;28;20045;-82
2022/01/09 08:22:39;;;;;;;11.65;2.38;;;;;;;4.85;87.77;99978.31;4973210;28;20303;-84
2022/01/09 08:25:06;;;;;;;14.52;2.08;;;;;;;4.86;87.66;99979.16;5021688;28;20073;-83
2022/01/09 08:27:31;;;;;;;13.60;2.90;;;;;;;4.86;87.69;99982.59;5004999;28;20046;-83
2022/01/09 08:29:56;;;;;;;6.32;2.25;;;;;;;4.87;87.62;99992.06;4989104;28;20090;-83
2022/01/09 08:32:22;;;;;;;9.85;2.25;;;;;;;4.88;87.46;99993.78;5005085;28;20061;-82
2022/01/09 08:34:47;;;;;;;7.20;2.15;;;;;;;4.87;87.44;99997.25;5004808;28;20038;-82
2022/01/09 08:37:13;;;;;;;14.77;2.30;;;;;;;4.87;87.16;99996.41;5005602;28;20068;-83
2022/01/09 08:39:42;;;;;;;15.60;3.53;;;;;;;4.91;87.23;100003.22;5006043;28;20057;-83
2022/01/09 08:42:07;;;;;;;8.48;1.83;;;;;;;4.91;86.94;100005.81;5018417;28;20132;-83
2022/01/09 08:44:33;;;;;;;14.25;2.38;;;;;;;4.91;87.04;100005.81;5023120;28;20037;-83
2022/01/09 08:46:58;;;;;;;13.30;2.05;;;;;;;4.92;87.20;100016.13;5021692;28;20036;-83
2022/01/09 08:49:23;;;;;;;13.23;2.65;;;;;;;4.91;87.12;100024.84;5005935;28;20052;-83
2022/01/09 08:51:49;;;;;;;10.85;2.10;;;;;;;4.91;87.47;100022.25;5005617;28;20072;-83
2022/01/09 08:54:14;;;;;;;10.85;2.28;;;;;;;4.92;87.40;100029.13;4986526;28;20337;-84
2022/01/09 08:56:41;;;;;;;7.15;2.30;;;;;;;4.90;87.87;100035.25;5022456;28;20050;-83
2022/01/09 08:59:06;;;;;;;6.28;2.60;;;;;;;4.91;87.95;100031.75;5023525;28;20038;-84
2022/01/09 09:01:32;;;;;;;14.95;2.58;;;;;;;4.89;88.02;100030.94;5006815;28;20056;-83
2022/01/09 09:03:57;;;;;;;7.60;2.10;;;;;;;4.90;88.21;100035.25;5023479;28;20089;-83
2022/01/09 09:06:22;;;;;;;9.90;2.58;;;;;;;4.91;88.38;100036.94;5023492;28;20144;-83
2022/01/09 09:08:48;;;;;;;13.35;2.10;;;;;;;4.91;88.07;100031.75;5023247;28;20046;-83
2022/01/09 09:11:13;;;;;;;6.00;1.85;;;;;;;4.92;88.22;100044.69;5021941;28;20029;-83
2022/01/09 09:13:39;;;;;;;18.02;2.83;;;;;;;4.92;88.07;100038.66;5017948;28;20026;-83
2022/01/09 09:16:04;;;;;;;13.00;1.67;;;;;;;4.94;88.09;100042.88;4983724;28;20034;-82
2022/01/09 09:18:30;;;;;;;10.23;2.58;;;;;;;4.95;87.97;100044.59;5019596;28;20061;-82
2022/01/09 09:20:55;;;;;;;9.02;1.95;;;;;;;4.97;87.65;100052.34;5003432;28;20052;-83
2022/01/09 09:23:21;;;;;;;18.42;2.75;;;;;;;4.98;87.40;100059.22;4991442;28;20042;-83
2022/01/09 09:25:46;;;;;;;8.23;1.85;;;;;;;5.00;87.15;100076.47;5021319;28;20040;-83
2022/01/09 09:28:12;;;;;;;12.68;2.85;;;;;;;5.02;86.80;100066.03;5019991;28;20071;-83
2022/01/09 09:30:38;;;;;;;11.60;2.35;;;;;;;5.00;86.84;100073.88;4988119;28;20107;-83
2022/01/09 09:33:05;;;;;;;15.82;2.63;;;;;;;5.03;86.95;100085.03;5003627;28;20034;-82
2022/01/09 09:35:31;;;;;;;10.80;2.40;;;;;;;5.03;87.04;100080.69;5019955;28;20042;-83
2022/01/09 09:37:56;;;;;;;9.88;1.55;;;;;;;5.04;86.86;100095.38;5003343;28;20045;-82
2022/01/09 09:40:22;;;;;;;6.47;1.48;;;;;;;5.04;86.89;100100.56;5003666;28;20288;-83
2022/01/09 09:42:47;;;;;;;18.85;2.63;;;;;;;5.06;86.68;100106.56;5019511;28;20060;-82
2022/01/09 09:45:13;;;;;;;6.80;1.75;;;;;;;5.06;86.12;100105.69;5021052;28;20038;-83
2022/01/09 09:47:39;;;;;;;10.10;2.03;;;;;;;5.05;85.78;100102.25;5019927;28;20109;-83
2022/01/09 09:50:06;;;;;;;10.32;1.48;;;;;;;5.05;85.68;100109.19;5003380;28;20033;-83
2022/01/09 09:52:31;;;;;;;9.90;2.85;;;;;;;5.03;85.74;100109.25;5003933;28;20049;-84
2022/01/09 09:54:57;;;;;;;11.45;2.15;;;;;;;5.05;85.90;100117.00;5003824;28;20041;-83
2022/01/09 09:57:22;;;;;;;8.85;2.67;;;;;;;5.06;85.96;100122.13;5020055;28;20034;-83
2022/01/09 09:59:48;;;;;;;11.60;1.98;;;;;;;5.08;86.07;100115.16;5003635;28;20353;-83
2022/01/09 10:02:17;;;;;;;7.20;1.75;;;;;;;5.07;86.22;100118.63;5020615;28;20349;-83
2022/01/09 10:05:01;;;;;;;5.93;1.75;;;;;;;5.07;86.19;100121.22;4987631;28;20041;-83
2022/01/09 10:07:27;;;;;;;16.48;2.10;;;;;;;5.06;86.31;100118.66;5016187;28;20101;-83
2022/01/09 10:09:54;;;;;;;11.15;2.10;;;;;;;5.06;86.55;100113.47;5001748;28;20030;-82
2022/01/09 10:12:28;;;;;;;12.77;2.55;;;;;;;5.06;86.58;100123.84;5003042;28;20101;-83
2022/01/09 10:14:57;;;;;;;12.30;2.17;;;;;;;5.07;86.67;100120.38;4990043;28;20038;-83
2022/01/09 10:17:24;;;;;;;11.13;2.10;;;;;;;5.08;86.49;100127.28;5003871;28;20065;-83
2022/01/09 10:20:13;;;;;;;9.07;2.08;;;;;;;5.09;86.53;100131.56;5019957;28;20025;-83
2022/01/09 10:22:43;;;;;;;11.93;2.22;;;;;;;5.11;86.58;100146.22;5019561;28;20364;-83
2022/01/09 10:25:30;;;;;;;12.73;1.90;;;;;;;5.11;86.12;100141.03;5002989;28;20033;-82
2022/01/09 10:27:58;;;;;;;8.38;1.60;;;;;;;5.08;86.02;100133.31;5019439;28;20038;-82
2022/01/09 10:30:26;;;;;;;12.43;2.38;;;;;;;5.07;86.21;100139.38;5006719;28;20042;-83
2022/01/09 10:32:56;;;;;;;9.77;1.63;;;;;;;5.04;86.23;100134.31;5011541;28;20043;-82
2022/01/09 10:35:22;;;;;;;6.80;1.67;;;;;;;5.04;86.55;100139.50;4977799;28;20064;-83
2022/01/09 10:37:48;;;;;;;7.25;1.75;;;;;;;5.03;86.65;100150.75;5017793;28;20054;-82
2022/01/09 10:40:22;;;;;;;9.80;1.73;;;;;;;5.05;86.88;100154.16;5002231;28;20325;-83
2022/01/09 10:43:20;;;;;;;10.20;1.95;;;;;;;5.06;86.97;100149.81;5002554;28;20033;-82
2022/01/09 10:45:49;;;;;;;6.15;1.52;;;;;;;5.05;86.92;100154.16;4975803;28;20057;-83
2022/01/09 10:48:20;;;;;;;10.43;1.75;;;;;;;5.07;87.27;100173.13;5003013;28;20072;-83
2022/01/09 10:50:45;;;;;;;10.30;2.40;;;;;;;5.08;87.01;100158.44;4999174;28;20093;-83
2022/01/09 10:53:11;;;;;;;18.25;2.55;;;;;;;5.07;87.17;100160.16;5018543;28;20352;-82
2022/01/09 10:55:37;;;;;;;12.88;2.53;;;;;;;5.07;87.33;100157.56;5018529;28;20108;-82
2022/01/09 10:58:23;;;;;;;8.15;1.85;;;;;;;5.07;87.22;100152.38;5023177;28;20038;-82
2022/01/09 11:01:15;;;;;;;8.80;1.88;;;;;;;5.09;87.38;100157.53;5010093;28;20026;-83
2022/01/09 11:03:45;;;;;;;8.73;1.55;;;;;;;5.11;87.36;100158.31;5010793;28;20084;-83
2022/01/09 11:06:10;;;;;;;5.80;1.73;;;;;;;5.11;87.64;100151.41;5004386;28;20038;-83
2022/01/09 11:08:36;;;;;;;8.85;2.03;;;;;;;5.14;87.64;100166.03;5000679;28;20048;-84
2022/01/09 11:11:03;;;;;;;14.40;2.20;;;;;;;5.17;87.73;100163.34;5025597;28;20033;-84
2022/01/09 11:13:28;;;;;;;11.57;2.42;;;;;;;5.18;87.64;100163.31;5023230;28;20560;-84
2022/01/09 11:18:40;;;;;;;12.52;2.92;;;;;;;5.22;87.50;100173.59;5014707;28;20040;-86
2022/01/09 11:21:06;;;;;;;10.23;2.10;;;;;;;5.23;86.91;100167.50;5010668;28;20218;-86
2022/01/09 11:23:49;;;;;;;14.02;1.85;;;;;;;5.26;86.83;100175.22;5025108;28;20355;-87
2022/01/09 11:26:14;;;;;;;9.65;2.08;;;;;;;5.26;86.49;100175.22;5013668;28;20336;-85
2022/01/09 11:28:41;;;;;;;19.10;3.25;;;;;;;5.28;86.39;100186.41;5004881;28;20088;-85
2022/01/09 11:31:30;;;;;;;16.42;2.50;;;;;;;5.30;86.80;100179.41;5021143;28;20341;-85
2022/01/09 11:34:19;;;;;;;8.45;1.98;;;;;;;5.32;86.58;100185.41;4991428;28;20108;-86
2022/01/09 11:37:11;;;;;;;5.03;2.03;;;;;;;5.33;86.88;100184.50;5005893;28;20060;-85
2022/01/09 11:39:36;;;;;;;6.45;1.73;;;;;;;5.34;86.68;100181.88;4994203;28;20061;-86
2022/01/09 11:42:07;;;;;;;12.73;2.55;;;;;;;5.36;86.46;100195.66;5007991;28;20081;-87